createdAt,value
2023-01-06T00:04:43.114Z,10.16
2023-01-06T00:35:51.374Z,10.23
2023-01-06T00:51:00.027Z,10.15
2023-01-06T01:06:02.156Z,10.32
2023-01-06T01:21:03.613Z,10.45
2023-01-06T01:36:06.508Z,10.35
2023-01-06T01:51:10.765Z,10.23
2023-01-06T02:06:15.663Z,10.22
2023-01-06T02:21:31.069Z,10.24
2023-01-06T02:36:38.595Z,10.27
2023-01-06T02:51:40.052Z,10.20
2023-01-06T03:06:44.918Z,10.19
2023-01-06T03:21:51.425Z,10.18
2023-01-06T03:37:04.978Z,10.18
2023-01-06T03:52:12.640Z,10.18
2023-01-06T04:23:20.721Z,10.18
2023-01-06T04:38:22.275Z,10.16
2023-01-06T04:53:23.894Z,10.17
2023-01-06T05:08:25.385Z,10.16
2023-01-06T05:23:26.955Z,10.15
2023-01-06T05:38:28.484Z,10.16
2023-01-06T05:53:33.875Z,10.18
2023-01-06T06:08:35.407Z,10.22
2023-01-06T06:23:37.072Z,10.26
2023-01-06T06:38:39.111Z,10.39
2023-01-06T06:53:41.245Z,10.50
2023-01-06T07:08:43.497Z,10.60
2023-01-06T07:23:45.003Z,10.70
2023-01-06T07:38:46.495Z,10.68
2023-01-06T07:53:48.032Z,10.70
2023-01-06T08:08:49.501Z,10.72
2023-01-06T08:23:51.019Z,10.75
2023-01-06T08:38:56.760Z,10.77
2023-01-06T08:53:58.285Z,10.80
2023-01-06T09:09:00.172Z,10.80
2023-01-06T09:24:01.849Z,10.81
2023-01-06T09:39:03.463Z,10.97
2023-01-06T09:54:25.215Z,10.82
2023-01-06T10:09:29.836Z,10.82
2023-01-06T10:24:40.527Z,10.83
2023-01-06T10:39:43.776Z,10.97
2023-01-06T10:54:45.838Z,10.98
2023-01-06T11:09:47.381Z,10.81
2023-01-06T11:24:51.859Z,10.87
2023-01-06T11:40:00.603Z,10.88
2023-01-06T11:55:14.074Z,10.88
2023-01-06T12:10:22.203Z,10.83
2023-01-06T12:25:24.327Z,10.84
2023-01-06T12:40:44.262Z,10.83
2023-01-06T12:55:52.019Z,10.83
2023-01-06T13:11:19.310Z,10.81
2023-01-06T13:26:26.613Z,10.81
2023-01-06T13:41:33.943Z,10.81
2023-01-06T13:56:35.823Z,10.80
2023-01-06T14:11:38.969Z,10.79
2023-01-06T14:26:48.539Z,10.78
2023-01-06T14:41:49.925Z,10.78
2023-01-06T14:56:55.719Z,10.79
2023-01-06T15:11:57.318Z,10.83
2023-01-06T15:27:06.281Z,10.81
2023-01-06T15:42:09.917Z,10.80
2023-01-06T15:57:16.662Z,10.77
2023-01-06T16:12:19.793Z,10.76
2023-01-06T16:27:25.848Z,10.77
2023-01-06T16:42:40.849Z,10.74
2023-01-06T16:57:46.126Z,10.73
2023-01-06T17:13:10.557Z,10.74
2023-01-06T17:28:20.030Z,10.77
2023-01-06T17:43:30.555Z,10.76
2023-01-06T17:58:32.782Z,11.13
2023-01-06T18:13:38.420Z,10.93
2023-01-06T18:28:39.870Z,10.84
2023-01-06T18:43:42.891Z,10.79
2023-01-06T18:58:52.873Z,10.72
2023-01-06T19:13:58.304Z,10.71
2023-01-06T19:29:01.906Z,10.73
2023-01-06T19:44:06.138Z,10.72
2023-01-06T19:59:17.870Z,10.64
2023-01-06T20:14:19.601Z,10.66
2023-01-06T20:29:21.146Z,10.64
2023-01-06T20:44:22.637Z,10.60
2023-01-06T20:59:24.196Z,10.65
2023-01-06T21:14:25.874Z,10.83
2023-01-06T21:29:27.394Z,10.70
2023-01-06T21:44:28.915Z,10.51
2023-01-06T21:59:30.456Z,10.47
2023-01-06T22:14:32.260Z,10.47
2023-01-06T22:29:33.812Z,10.45
2023-01-06T22:44:35.439Z,10.47
2023-01-06T22:59:36.943Z,10.57
2023-01-06T23:14:38.379Z,10.43
2023-01-06T23:29:39.851Z,10.43
2023-01-06T23:44:41.456Z,10.54
2023-01-06T23:59:44.723Z,10.53
